Time;durP1;ratioP1;P1;durP2;ratioP2;P2;SDS_P1;SDS_P2;PMS_P1;PMS_P2;Temp;Humidity;BMP_temperature;BMP_pressure;BME280_temperature;BME280_humidity;BME280_pressure;Samples;Min_cycle;Max_cycle;Signal;HPM_P1;HPM_P2
2021/12/28 00:03:29;;;;;;;92.90;36.93;;;-5.50;99.90;;;;;;8386985;28;20211;-65
2021/12/28 00:07:30;;;;;;;85.90;37.60;;;-5.60;99.90;;;;;;8427421;28;20185;-73
2021/12/28 00:11:31;;;;;;;88.53;37.17;;;-5.60;99.90;;;;;;8384550;28;20208;-68
2021/12/28 00:15:43;;;;;;;97.20;37.50;;;-5.60;99.90;;;;;;8390392;28;20189;-64
2021/12/28 00:19:44;;;;;;;78.37;35.60;;;-5.70;99.90;;;;;;8391665;28;20363;-64
2021/12/28 00:23:45;;;;;;;83.77;36.00;;;-5.70;99.90;;;;;;8390070;28;20268;-64
2021/12/28 00:27:45;;;;;;;104.77;39.67;;;-5.70;99.90;;;;;;8389329;28;20188;-64
2021/12/28 00:31:46;;;;;;;99.03;40.33;;;-5.70;99.90;;;;;;8385666;28;20638;-64
2021/12/28 00:35:47;;;;;;;91.37;40.63;;;-5.70;99.90;;;;;;8409905;28;20188;-63
2021/12/28 00:39:48;;;;;;;105.83;38.90;;;-5.70;99.90;;;;;;8391883;28;20351;-65
2021/12/28 00:43:49;;;;;;;103.13;42.23;;;-5.70;99.90;;;;;;8387063;28;20219;-66
2021/12/28 00:47:50;;;;;;;98.80;38.27;;;-5.70;99.90;;;;;;8378747;28;20181;-64
2021/12/28 00:51:52;;;;;;;90.07;38.43;;;-5.70;99.90;;;;;;8391349;28;20268;-64
2021/12/28 00:55:52;;;;;;;87.93;38.67;;;-5.80;99.90;;;;;;8387207;28;20214;-65
2021/12/28 00:59:53;;;;;;;98.67;37.70;;;-5.80;99.90;;;;;;8378899;28;20185;-65
2021/12/28 01:03:54;;;;;;;88.77;38.47;;;-5.90;99.90;;;;;;8386590;28;20212;-64
2021/12/28 01:07:55;;;;;;;98.93;38.13;;;-5.90;99.90;;;;;;8401977;28;20186;-65
2021/12/28 01:11:58;;;;;;;88.03;37.70;;;-5.90;99.90;;;;;;8395214;28;20208;-66
2021/12/28 01:15:59;;;;;;;90.30;36.10;;;-5.90;99.90;;;;;;8387591;28;20184;-65
2021/12/28 01:20:00;;;;;;;93.40;35.47;;;-5.90;99.90;;;;;;8385520;28;20253;-65
2021/12/28 01:24:01;;;;;;;89.20;36.73;;;-5.90;99.90;;;;;;8392050;28;20210;-64
2021/12/28 01:28:03;;;;;;;84.80;36.83;;;-6.00;99.90;;;;;;8397432;28;20374;-65
2021/12/28 01:32:07;;;;;;;110.90;40.90;;;-6.00;99.90;;;;;;8420993;27;20207;-64
2021/12/28 01:36:08;;;;;;;94.23;38.27;;;-6.00;99.90;;;;;;8382637;28;20186;-64
2021/12/28 01:40:12;;;;;;;107.77;39.80;;;-6.00;99.90;;;;;;8390167;28;20190;-65
2021/12/28 01:44:13;;;;;;;90.27;37.20;;;-6.00;99.90;;;;;;8381423;28;20212;-65
2021/12/28 01:48:17;;;;;;;91.00;38.20;;;-6.10;99.90;;;;;;8418006;28;20192;-65
2021/12/28 01:52:18;;;;;;;78.90;34.20;;;-6.10;99.90;;;;;;8378969;28;20191;-64
2021/12/28 01:56:23;;;;;;;93.07;35.57;;;-6.10;99.90;;;;;;8385331;28;20190;-65
2021/12/28 02:00:25;;;;;;;84.43;35.07;;;-6.20;99.90;;;;;;8382292;28;20186;-65
2021/12/28 02:04:29;;;;;;;97.20;38.77;;;-6.20;99.90;;;;;;8377969;28;20531;-64
2021/12/28 02:08:29;;;;;;;91.57;35.03;;;-6.10;99.90;;;;;;8383396;28;20199;-64
2021/12/28 02:12:30;;;;;;;88.43;37.43;;;-6.10;99.90;;;;;;8384413;28;20238;-65
2021/12/28 02:16:33;;;;;;;91.73;36.93;;;-6.20;99.90;;;;;;8390983;28;20189;-64
2021/12/28 02:20:34;;;;;;;77.37;32.50;;;-6.30;99.90;;;;;;8386136;28;20508;-64
2021/12/28 02:24:35;;;;;;;89.17;34.37;;;-6.30;99.90;;;;;;8382272;28;20217;-64
2021/12/28 02:28:36;;;;;;;80.73;35.57;;;-6.40;99.90;;;;;;8392135;28;20184;-64
2021/12/28 02:32:39;;;;;;;93.23;36.33;;;-6.30;99.90;;;;;;8382305;28;20454;-65
2021/12/28 02:36:39;;;;;;;93.43;36.50;;;-6.30;99.90;;;;;;8383437;28;20185;-65
2021/12/28 02:40:42;;;;;;;100.47;37.27;;;-6.30;99.90;;;;;;8402520;28;20210;-65
2021/12/28 02:44:43;;;;;;;96.10;38.47;;;-6.30;99.90;;;;;;8381265;28;20215;-65
2021/12/28 02:48:44;;;;;;;96.20;38.10;;;-6.30;99.90;;;;;;8382353;28;20272;-65
2021/12/28 02:52:45;;;;;;;97.50;38.07;;;-6.30;99.90;;;;;;8384069;28;20187;-64
2021/12/28 02:56:46;;;;;;;87.57;35.77;;;-6.30;99.90;;;;;;8391626;28;20181;-65
2021/12/28 03:00:54;;;;;;;89.37;33.93;;;-6.30;99.90;;;;;;8384086;28;20192;-65
2021/12/28 03:04:54;;;;;;;94.20;36.53;;;-6.40;99.90;;;;;;8389758;28;20219;-65
2021/12/28 03:08:57;;;;;;;85.57;33.93;;;-6.40;99.90;;;;;;8389659;28;20754;-65
2021/12/28 03:12:58;;;;;;;93.60;38.87;;;-6.50;99.90;;;;;;8404604;28;20211;-64
2021/12/28 03:16:59;;;;;;;88.33;36.57;;;-6.40;99.90;;;;;;8387484;28;20274;-65
2021/12/28 03:21:00;;;;;;;87.63;37.23;;;-6.40;99.90;;;;;;8394941;28;20250;-66
2021/12/28 03:25:01;;;;;;;104.17;39.50;;;-6.40;99.90;;;;;;8402411;28;20227;-64
2021/12/28 03:29:03;;;;;;;107.53;40.40;;;-6.40;99.90;;;;;;8394587;28;20206;-65
2021/12/28 03:33:04;;;;;;;99.63;37.10;;;-6.40;99.90;;;;;;8384969;28;20187;-64
2021/12/28 03:37:05;;;;;;;93.57;35.33;;;-6.40;99.90;;;;;;8393015;28;20191;-70
2021/12/28 03:41:07;;;;;;;102.83;36.50;;;-6.40;99.90;;;;;;8403475;28;20181;-65
2021/12/28 03:45:10;;;;;;;99.57;36.13;;;-6.40;99.90;;;;;;8383836;28;20224;-65
2021/12/28 03:49:10;;;;;;;83.47;33.00;;;-6.50;99.90;;;;;;8387372;28;20191;-65
2021/12/28 03:53:11;;;;;;;97.60;35.60;;;-6.50;99.90;;;;;;8387589;28;20276;-64
2021/12/28 03:57:12;;;;;;;105.50;38.10;;;-6.50;99.90;;;;;;8393322;28;20186;-65
2021/12/28 04:01:19;;;;;;;97.00;37.50;;;-6.50;99.90;;;;;;8388874;28;20241;-65
2021/12/28 04:05:20;;;;;;;83.53;33.53;;;-6.50;99.90;;;;;;8387988;28;20210;-65
2021/12/28 04:09:45;;;;;;;92.70;34.27;;;-6.40;99.90;;;;;;8390514;28;20305;-65
2021/12/28 04:13:47;;;;;;;96.53;32.40;;;-6.50;99.90;;;;;;8390284;28;20196;-65
2021/12/28 04:17:48;;;;;;;87.23;34.00;;;-6.50;99.90;;;;;;8386629;28;20241;-64
2021/12/28 04:21:49;;;;;;;77.33;33.70;;;-6.60;99.90;;;;;;8396497;28;20247;-64
2021/12/28 04:25:49;;;;;;;97.00;37.57;;;-6.60;99.90;;;;;;8386157;28;20205;-64
2021/12/28 04:29:50;;;;;;;98.10;38.33;;;-6.50;99.90;;;;;;8382851;28;20181;-64
2021/12/28 04:33:51;;;;;;;86.33;34.40;;;-6.50;99.90;;;;;;8389016;28;20211;-65
2021/12/28 04:37:52;;;;;;;88.70;36.03;;;-6.50;99.90;;;;;;8394469;28;20423;-65
2021/12/28 04:41:53;;;;;;;95.20;33.27;;;-6.50;99.90;;;;;;8408454;28;20279;-68
2021/12/28 04:45:54;;;;;;;88.80;35.30;;;-6.50;99.90;;;;;;8379607;28;20216;-66
2021/12/28 04:49:54;;;;;;;98.40;40.53;;;-6.50;99.90;;;;;;8384725;28;20294;-65
2021/12/28 04:53:56;;;;;;;104.33;37.90;;;-6.50;99.90;;;;;;8374193;28;20182;-65
2021/12/28 04:57:57;;;;;;;97.63;38.50;;;-6.60;99.90;;;;;;8387503;28;20446;-65
2021/12/28 05:01:58;;;;;;;95.40;34.37;;;-6.60;99.90;;;;;;8387747;28;20191;-65
2021/12/28 05:05:59;;;;;;;107.83;40.50;;;-6.50;99.90;;;;;;8399222;28;20279;-65
2021/12/28 05:10:00;;;;;;;106.07;40.47;;;-6.50;99.90;;;;;;8387032;28;20208;-65
2021/12/28 05:14:01;;;;;;;96.33;37.23;;;-6.50;99.90;;;;;;8386193;28;20667;-66
2021/12/28 05:18:04;;;;;;;98.13;36.93;;;-6.40;99.90;;;;;;8385993;28;20191;-65
2021/12/28 05:22:08;;;;;;;110.03;39.23;;;-6.50;99.90;;;;;;8426335;27;20200;-66
2021/12/28 05:26:09;;;;;;;89.90;42.33;;;-6.50;99.90;;;;;;8390870;28;20214;-66
2021/12/28 05:30:11;;;;;;;96.87;38.70;;;-6.60;99.90;;;;;;8391054;28;20236;-65
2021/12/28 05:34:11;;;;;;;95.47;39.80;;;-6.60;99.90;;;;;;8393750;28;20206;-65
2021/12/28 05:38:12;;;;;;;90.90;36.90;;;-6.60;99.90;;;;;;8386425;28;20215;-66
2021/12/28 05:42:13;;;;;;;109.20;38.63;;;-6.60;99.90;;;;;;8404979;28;20197;-65
2021/12/28 05:46:14;;;;;;;85.40;33.60;;;-6.60;99.90;;;;;;8385355;28;20191;-66
2021/12/28 05:50:15;;;;;;;99.40;37.40;;;-6.60;99.90;;;;;;8390702;28;20195;-65
2021/12/28 05:54:17;;;;;;;91.47;37.33;;;-6.50;99.90;;;;;;8389646;28;20210;-65
2021/12/28 05:58:18;;;;;;;95.07;38.17;;;-6.40;99.90;;;;;;8381455;28;20202;-65
2021/12/28 06:02:19;;;;;;;86.57;35.23;;;-6.40;99.90;;;;;;8370619;28;20183;-65
2021/12/28 06:06:20;;;;;;;96.93;36.53;;;-6.30;99.90;;;;;;8412581;28;20192;-65
2021/12/28 06:10:21;;;;;;;90.70;35.83;;;-6.40;99.90;;;;;;8382190;28;20542;-65
2021/12/28 06:14:21;;;;;;;91.40;37.50;;;-6.40;99.90;;;;;;8377838;28;20197;-65
2021/12/28 06:18:22;;;;;;;87.87;36.50;;;-6.30;99.90;;;;;;8385684;28;20188;-65
2021/12/28 06:22:23;;;;;;;94.43;38.17;;;-6.30;99.90;;;;;;8378047;28;20230;-65
2021/12/28 06:26:24;;;;;;;104.10;38.37;;;-6.30;99.90;;;;;;8389370;28;20266;-65
2021/12/28 06:30:25;;;;;;;105.67;36.43;;;-6.30;99.90;;;;;;8381188;28;20197;-65
2021/12/28 06:34:26;;;;;;;97.87;38.33;;;-6.20;99.90;;;;;;8373117;28;20195;-65
2021/12/28 06:38:27;;;;;;;99.43;38.57;;;-6.10;99.90;;;;;;8384570;28;20194;-65
2021/12/28 06:42:27;;;;;;;90.87;38.60;;;-6.00;99.90;;;;;;8380060;28;20204;-65
2021/12/28 06:46:28;;;;;;;84.40;36.97;;;-5.90;99.90;;;;;;8379843;28;20185;-65
2021/12/28 06:50:29;;;;;;;102.37;44.63;;;-5.80;99.90;;;;;;8387710;28;20612;-65
2021/12/28 06:54:36;;;;;;;104.40;41.83;;;-5.70;99.90;;;;;;8387644;28;20264;-65
2021/12/28 06:58:38;;;;;;;90.50;37.70;;;-5.70;99.90;;;;;;8420509;28;20183;-65
2021/12/28 07:02:39;;;;;;;139.63;58.10;;;-5.60;99.90;;;;;;8380981;28;20197;-65
2021/12/28 07:06:39;;;;;;;147.30;67.17;;;-5.60;99.90;;;;;;8376681;28;20276;-65
2021/12/28 07:10:42;;;;;;;128.17;60.30;;;-5.50;99.90;;;;;;8398942;28;20203;-65
2021/12/28 07:14:42;;;;;;;108.70;45.77;;;-5.50;99.90;;;;;;8387039;28;20207;-65
2021/12/28 07:18:43;;;;;;;102.77;40.60;;;-5.40;99.90;;;;;;8390203;28;20185;-65
2021/12/28 07:22:44;;;;;;;145.93;54.77;;;-5.40;99.90;;;;;;8386932;28;20212;-67
2021/12/28 07:26:45;;;;;;;114.80;47.23;;;-5.30;99.90;;;;;;8385932;28;20180;-67
2021/12/28 07:30:47;;;;;;;130.00;58.27;;;-5.20;99.90;;;;;;8380561;28;20188;-67
2021/12/28 07:34:48;;;;;;;118.97;51.80;;;-5.10;99.90;;;;;;8383271;28;20189;-67
2021/12/28 07:38:49;;;;;;;106.77;45.43;;;-5.00;99.90;;;;;;8394390;28;20185;-67
2021/12/28 07:42:49;;;;;;;129.90;53.90;;;-5.00;99.90;;;;;;8394594;28;20214;-67
2021/12/28 07:46:50;;;;;;;131.60;54.90;;;-5.00;99.90;;;;;;8389083;28;20177;-67
2021/12/28 07:50:51;;;;;;;113.90;46.53;;;-4.90;99.90;;;;;;8395357;28;20254;-68
2021/12/28 07:54:52;;;;;;;104.07;44.07;;;-4.90;99.90;;;;;;8401027;28;20231;-67
2021/12/28 07:58:53;;;;;;;103.00;49.03;;;-4.80;99.90;;;;;;8387555;28;20183;-68
2021/12/28 08:02:54;;;;;;;150.93;69.73;;;-4.60;99.90;;;;;;8383006;28;20243;-67
2021/12/28 08:06:56;;;;;;;121.17;54.53;;;-4.50;99.90;;;;;;8386981;28;20177;-67
2021/12/28 08:10:57;;;;;;;126.60;47.53;;;-4.40;99.90;;;;;;8386957;28;20223;-67
2021/12/28 08:14:58;;;;;;;169.77;63.40;;;-4.30;99.90;;;;;;8387958;28;20188;-67
2021/12/28 08:18:58;;;;;;;123.23;51.67;;;-4.20;99.90;;;;;;8388278;28;20223;-67
2021/12/28 08:23:00;;;;;;;112.73;50.53;;;-4.10;99.90;;;;;;8380602;28;20213;-67
2021/12/28 08:27:01;;;;;;;127.60;45.53;;;-4.00;99.90;;;;;;8421064;27;20181;-67
2021/12/28 08:31:01;;;;;;;128.10;52.07;;;-3.90;99.90;;;;;;8393478;28;20172;-67
2021/12/28 08:35:04;;;;;;;149.10;62.53;;;-3.90;99.90;;;;;;8383151;28;20195;-68
2021/12/28 08:39:07;;;;;;;115.37;48.70;;;-3.80;99.90;;;;;;8385009;28;20225;-67
2021/12/28 08:43:09;;;;;;;121.90;49.93;;;-3.70;99.90;;;;;;8395188;28;20211;-67
2021/12/28 08:47:11;;;;;;;134.80;52.93;;;-3.60;99.90;;;;;;8390055;28;20177;-67
2021/12/28 08:51:12;;;;;;;189.43;67.20;;;-3.40;99.90;;;;;;8387062;28;20185;-67
2021/12/28 08:55:14;;;;;;;148.80;63.37;;;-3.30;99.90;;;;;;8387767;28;20203;-67
2021/12/28 08:59:15;;;;;;;131.10;48.97;;;-3.10;99.90;;;;;;8386741;28;20186;-67
2021/12/28 09:03:16;;;;;;;134.27;53.37;;;-3.00;99.90;;;;;;8385896;28;20212;-67
2021/12/28 09:07:18;;;;;;;136.27;48.43;;;-2.80;99.90;;;;;;8385665;28;20189;-67
2021/12/28 09:11:19;;;;;;;132.53;46.80;;;-2.80;99.90;;;;;;8383397;28;20586;-68
2021/12/28 09:15:21;;;;;;;113.33;47.30;;;-2.60;99.90;;;;;;8385040;28;20197;-67
2021/12/28 09:19:22;;;;;;;101.20;43.00;;;-2.40;99.90;;;;;;8380393;28;20195;-67
2021/12/28 09:23:23;;;;;;;163.10;66.03;;;-2.10;99.90;;;;;;8390125;28;20218;-67
2021/12/28 09:27:24;;;;;;;201.80;70.93;;;-1.90;1.00;;;;;;8380271;28;20188;-68
2021/12/28 09:31:24;;;;;;;127.93;54.43;;;-1.70;99.90;;;;;;8390140;28;20219;-67
2021/12/28 09:35:25;;;;;;;143.27;57.23;;;-1.60;99.90;;;;;;8386332;28;20279;-68
2021/12/28 09:39:28;;;;;;;168.07;59.73;;;-1.50;1.00;;;;;;8386213;28;20183;-67
2021/12/28 09:43:29;;;;;;;140.53;57.80;;;-1.40;99.90;;;;;;8390574;28;20208;-67
2021/12/28 09:47:30;;;;;;;141.13;55.67;;;-1.40;1.00;;;;;;8392716;28;20270;-75
2021/12/28 09:51:31;;;;;;;123.27;49.10;;;-1.30;1.00;;;;;;8385680;28;20183;-67
2021/12/28 09:55:32;;;;;;;131.13;48.47;;;-1.20;99.90;;;;;;8384037;28;20191;-68
2021/12/28 09:59:33;;;;;;;154.37;60.00;;;-1.00;99.90;;;;;;8376755;28;20203;-67
2021/12/28 10:03:35;;;;;;;108.63;46.73;;;-1.00;99.90;;;;;;8385781;28;20236;-68
2021/12/28 10:07:44;;;;;;;138.37;56.43;;;-1.00;99.90;;;;;;8370759;28;20271;-68
2021/12/28 10:11:57;;;;;;;124.63;49.47;;;-0.90;87.30;;;;;;8386354;28;20289;-68
2021/12/28 10:15:57;;;;;;;129.83;52.63;;;-0.90;99.90;;;;;;8389917;28;20211;-69
2021/12/28 10:20:07;;;;;;;111.40;46.83;;;-0.80;99.90;;;;;;8396757;28;20188;-68
2021/12/28 10:24:08;;;;;;;108.03;42.90;;;-0.70;68.30;;;;;;8388526;28;20208;-68
2021/12/28 10:28:13;;;;;;;174.20;64.07;;;-0.60;1.00;;;;;;8385151;28;20215;-68
2021/12/28 10:32:25;;;;;;;135.07;53.20;;;-0.50;1.00;;;;;;8386477;28;20188;-68
2021/12/28 10:36:33;;;;;;;113.83;47.77;;;-0.40;1.00;;;;;;8383567;28;20181;-68
2021/12/28 10:40:41;;;;;;;156.03;55.67;;;-0.40;1.00;;;;;;8386623;28;20185;-68
2021/12/28 10:45:01;;;;;;;163.07;61.80;;;-0.50;1.00;;;;;;8373651;28;20280;-68
2021/12/28 10:49:02;;;;;;;159.00;62.10;;;-0.40;19.30;;;;;;8385182;28;20181;-67
2021/12/28 10:53:14;;;;;;;107.60;46.13;;;-0.30;8.50;;;;;;8383689;28;20282;-68
2021/12/28 10:57:15;;;;;;;113.33;48.93;;;-0.20;1.00;;;;;;8381231;28;20185;-68
2021/12/28 11:01:21;;;;;;;109.00;48.07;;;-0.10;1.00;;;;;;8386053;28;20357;-68
2021/12/28 11:05:34;;;;;;;99.53;43.23;;;0.00;1.00;;;;;;8395904;28;20220;-68
2021/12/28 11:09:49;;;;;;;90.03;38.97;;;0.20;1.00;;;;;;8384007;28;20209;-68
2021/12/28 11:13:57;;;;;;;78.27;38.70;;;0.30;1.00;;;;;;8386709;28;20181;-69
2021/12/28 11:17:58;;;;;;;92.60;41.80;;;0.40;1.00;;;;;;8388688;28;20177;-69
2021/12/28 11:22:06;;;;;;;94.90;42.60;;;0.50;1.00;;;;;;8397755;28;20232;-69
2021/12/28 11:26:24;;;;;;;90.93;40.17;;;0.60;99.90;;;;;;8427621;28;20277;-70
2021/12/28 11:30:25;;;;;;;79.77;40.00;;;0.70;99.90;;;;;;8401383;28;20180;-70
2021/12/28 11:34:27;;;;;;;75.00;36.07;;;0.70;99.90;;;;;;8405717;28;20272;-70
2021/12/28 11:38:29;;;;;;;77.50;36.03;;;0.80;99.90;;;;;;8391189;28;20185;-70
2021/12/28 11:42:31;;;;;;;74.57;36.83;;;0.90;99.90;;;;;;8392424;28;20189;-69
2021/12/28 11:46:32;;;;;;;80.50;37.00;;;0.90;99.90;;;;;;8389396;28;20182;-69
2021/12/28 11:50:33;;;;;;;76.70;36.87;;;1.00;99.90;;;;;;8395595;28;20189;-69
2021/12/28 11:54:40;;;;;;;71.77;35.40;;;1.10;99.90;;;;;;8390920;28;20223;-70
2021/12/28 11:58:54;;;;;;;109.73;48.23;;;1.10;99.90;;;;;;8386202;28;20185;-69
2021/12/28 12:02:56;;;;;;;93.87;44.33;;;1.20;99.90;;;;;;8390357;28;20490;-69
2021/12/28 12:07:09;;;;;;;89.23;42.57;;;1.20;99.90;;;;;;8373907;28;20212;-69
2021/12/28 12:11:10;;;;;;;87.17;39.33;;;1.30;99.90;;;;;;8396502;28;20209;-69
2021/12/28 12:15:12;;;;;;;85.33;41.63;;;1.50;99.90;;;;;;8389324;28;20189;-69
2021/12/28 12:19:46;;;;;;;81.10;41.23;;;1.70;91.30;;;;;;8395652;28;20204;-70
2021/12/28 12:23:54;;;;;;;82.00;39.23;;;1.80;28.40;;;;;;8393863;28;20308;-69
2021/12/28 12:28:05;;;;;;;87.17;44.93;;;1.90;1.00;;;;;;8377592;28;20190;-69
2021/12/28 12:32:06;;;;;;;93.80;43.73;;;1.90;1.00;;;;;;8395019;28;20189;-69
2021/12/28 12:36:15;;;;;;;94.30;42.37;;;2.00;1.00;;;;;;8418536;28;20208;-69
2021/12/28 12:40:16;;;;;;;99.10;47.17;;;2.10;1.00;;;;;;8402170;28;20189;-69
2021/12/28 12:44:23;;;;;;;100.83;49.00;;;2.30;1.00;;;;;;8386021;28;20228;-69
2021/12/28 12:48:36;;;;;;;111.53;50.30;;;2.50;1.00;;;;;;8383633;28;20191;-69
2021/12/28 12:52:38;;;;;;;96.53;45.33;;;2.70;1.00;;;;;;8388829;28;20215;-69
2021/12/28 12:56:51;;;;;;;90.70;40.70;;;2.70;1.00;;;;;;8385470;28;20278;-70
2021/12/28 13:00:52;;;;;;;79.43;39.70;;;2.80;1.00;;;;;;8382510;28;20227;-69
2021/12/28 13:04:59;;;;;;;82.30;41.07;;;2.80;1.00;;;;;;8384936;28;20208;-69
2021/12/28 13:09:00;;;;;;;93.93;42.70;;;2.70;1.00;;;;;;8382274;28;20188;-69
2021/12/28 13:13:01;;;;;;;88.33;41.20;;;2.50;1.00;;;;;;8386283;28;20189;-68
2021/12/28 13:17:05;;;;;;;130.27;58.87;;;2.30;1.00;;;;;;8382380;28;20185;-68
2021/12/28 13:21:06;;;;;;;77.57;37.17;;;2.20;13.80;;;;;;8389665;28;20189;-69
2021/12/28 13:25:09;;;;;;;78.20;39.93;;;2.10;88.50;;;;;;8392985;28;20213;-68
2021/12/28 13:29:10;;;;;;;81.97;40.53;;;2.00;99.90;;;;;;8380075;28;20217;-69
2021/12/28 13:33:19;;;;;;;76.13;37.97;;;1.90;99.90;;;;;;8385999;28;20213;-69
2021/12/28 13:37:33;;;;;;;86.90;46.97;;;1.90;99.90;;;;;;8378390;28;20197;-69
2021/12/28 13:41:34;;;;;;;72.73;35.80;;;1.70;99.90;;;;;;8389213;28;20372;-69
2021/12/28 13:46:05;;;;;;;73.13;37.33;;;1.70;99.90;;;;;;8390164;28;20221;-69
2021/12/28 13:50:13;;;;;;;65.77;36.30;;;1.60;1.00;;;;;;8377601;28;20188;-68
2021/12/28 13:54:14;;;;;;;70.13;36.33;;;1.50;1.00;;;;;;8380749;28;20193;-69
2021/12/28 13:58:43;;;;;;;69.67;35.27;;;1.50;1.00;;;;;;8382195;28;20287;-69
2021/12/28 14:03:00;;;;;;;67.83;33.53;;;1.40;1.00;;;;;;8366223;28;20204;-69
2021/12/28 14:07:01;;;;;;;66.07;33.80;;;1.30;99.90;;;;;;8376585;28;20185;-69
2021/12/28 14:11:02;;;;;;;73.07;35.33;;;1.20;99.90;;;;;;8382034;28;20205;-68
2021/12/28 14:15:04;;;;;;;71.87;33.83;;;1.10;99.90;;;;;;8399565;28;20185;-69
2021/12/28 14:19:15;;;;;;;66.50;33.57;;;0.90;99.90;;;;;;8384024;28;20200;-68
2021/12/28 14:23:30;;;;;;;64.13;32.47;;;0.70;1.00;;;;;;8389725;28;20691;-69
2021/12/28 14:27:36;;;;;;;62.13;31.93;;;0.60;19.00;;;;;;8412319;28;20181;-69
2021/12/28 14:31:40;;;;;;;71.00;31.60;;;0.40;99.90;;;;;;8414185;28;20181;-69
2021/12/28 14:35:41;;;;;;;66.70;31.87;;;0.30;28.20;;;;;;8382384;28;20456;-69
2021/12/28 14:39:53;;;;;;;156.20;66.53;;;0.20;99.90;;;;;;8382506;28;20193;-69
2021/12/28 14:44:17;;;;;;;147.43;61.53;;;0.10;99.90;;;;;;8377240;28;20258;-69
2021/12/28 14:48:19;;;;;;;138.27;58.77;;;-0.10;1.00;;;;;;8388628;28;20189;-69
2021/12/28 14:52:28;;;;;;;131.27;53.37;;;-0.20;99.90;;;;;;8372497;28;20185;-69
2021/12/28 14:56:32;;;;;;;101.87;42.43;;;-0.30;1.00;;;;;;8379757;28;20193;-69
2021/12/28 15:00:46;;;;;;;84.27;39.40;;;-0.40;1.00;;;;;;8385464;28;20189;-69
2021/12/28 15:04:55;;;;;;;80.90;37.03;;;-0.50;99.90;;;;;;8409186;28;20213;-70
2021/12/28 15:08:56;;;;;;;77.97;36.33;;;-0.60;1.00;;;;;;8384570;28;20174;-70
2021/12/28 15:13:01;;;;;;;75.77;34.97;;;-0.70;99.90;;;;;;8380685;28;20246;-70
2021/12/28 15:17:04;;;;;;;66.37;33.40;;;-0.80;1.00;;;;;;8386521;28;20185;-70
2021/12/28 15:21:05;;;;;;;78.37;34.03;;;-0.80;99.90;;;;;;8410059;28;20205;-71
2021/12/28 15:25:08;;;;;;;77.47;36.03;;;-0.80;1.00;;;;;;8373654;28;20220;-70
2021/12/28 15:29:09;;;;;;;76.90;34.40;;;-0.70;99.90;;;;;;8377416;28;20188;-65
2021/12/28 15:33:10;;;;;;;71.50;33.83;;;-0.50;99.90;;;;;;8379505;28;20185;-65
2021/12/28 15:37:11;;;;;;;79.50;35.63;;;-0.30;99.90;;;;;;8380410;28;20205;-65
2021/12/28 15:41:12;;;;;;;73.63;33.93;;;-0.10;99.90;;;;;;8382114;28;20193;-64
2021/12/28 15:45:14;;;;;;;80.30;38.30;;;0.00;99.90;;;;;;8383351;28;20217;-64
2021/12/28 15:49:15;;;;;;;116.20;51.03;;;0.20;99.90;;;;;;8382339;28;20192;-65
2021/12/28 15:53:16;;;;;;;95.60;43.90;;;0.30;99.90;;;;;;8379356;28;20201;-65
2021/12/28 15:57:17;;;;;;;75.70;36.93;;;0.30;99.90;;;;;;8384109;28;20304;-65
2021/12/28 16:01:19;;;;;;;92.63;43.47;;;0.50;99.90;;;;;;8382841;28;20192;-65
2021/12/28 16:05:19;;;;;;;105.17;48.60;;;0.60;99.90;;;;;;8385447;28;20209;-65
2021/12/28 16:09:20;;;;;;;85.57;40.47;;;0.60;99.90;;;;;;8389473;28;20212;-65
2021/12/28 16:13:21;;;;;;;70.30;33.37;;;0.70;99.90;;;;;;8387065;28;20254;-65
2021/12/28 16:17:22;;;;;;;64.10;30.47;;;0.80;99.90;;;;;;8378894;28;20227;-65
2021/12/28 16:21:24;;;;;;;77.47;35.10;;;0.90;99.90;;;;;;8383613;28;20213;-65
2021/12/28 16:25:25;;;;;;;109.83;49.80;;;0.90;99.90;;;;;;8383460;28;20291;-65
2021/12/28 16:29:25;;;;;;;72.13;37.17;;;1.00;99.90;;;;;;8383973;28;20253;-65
2021/12/28 16:33:26;;;;;;;55.67;30.13;;;1.00;99.90;;;;;;8411660;28;20213;-65
2021/12/28 16:37:29;;;;;;;62.20;32.40;;;1.00;99.90;;;;;;8383967;28;20195;-65
2021/12/28 16:41:29;;;;;;;60.77;28.80;;;1.00;99.90;;;;;;8385973;28;20568;-65
2021/12/28 16:45:32;;;;;;;52.63;27.93;;;1.00;99.90;;;;;;8391317;28;20217;-65
2021/12/28 16:49:33;;;;;;;47.50;25.73;;;1.00;99.90;;;;;;8381036;28;20178;-65
2021/12/28 16:53:34;;;;;;;45.03;22.90;;;1.00;99.90;;;;;;8383432;28;20227;-65
2021/12/28 16:57:36;;;;;;;40.37;21.77;;;1.10;99.90;;;;;;8386372;28;20180;-66
2021/12/28 17:01:38;;;;;;;43.90;23.97;;;1.10;99.90;;;;;;8379523;28;20192;-65
2021/12/28 17:05:39;;;;;;;41.77;23.80;;;1.20;99.90;;;;;;8417142;28;20201;-65
2021/12/28 17:09:39;;;;;;;42.90;22.20;;;1.30;99.90;;;;;;8378977;28;20288;-65
2021/12/28 17:13:41;;;;;;;38.87;23.17;;;1.30;99.90;;;;;;8392123;28;20684;-65
2021/12/28 17:17:42;;;;;;;55.17;27.47;;;1.30;99.90;;;;;;8390475;28;20185;-65
2021/12/28 17:21:43;;;;;;;85.50;38.53;;;1.40;99.90;;;;;;8419317;28;20190;-64
2021/12/28 17:25:45;;;;;;;119.60;52.03;;;1.40;99.90;;;;;;8388615;28;20269;-64
2021/12/28 17:29:45;;;;;;;98.43;47.23;;;1.40;99.90;;;;;;8381995;28;20185;-64
2021/12/28 17:33:46;;;;;;;87.43;42.27;;;1.50;99.90;;;;;;8377030;28;20184;-64
2021/12/28 17:37:47;;;;;;;63.60;33.17;;;1.50;99.90;;;;;;8385311;28;20200;-64
2021/12/28 17:41:48;;;;;;;51.90;28.43;;;1.50;99.90;;;;;;8388685;28;20199;-64
2021/12/28 17:45:49;;;;;;;40.80;23.23;;;1.50;99.90;;;;;;8386572;28;20213;-65
2021/12/28 17:49:50;;;;;;;39.93;20.40;;;1.50;99.90;;;;;;8389454;28;20196;-65
2021/12/28 17:53:52;;;;;;;35.90;20.13;;;1.50;99.90;;;;;;8381941;28;20275;-64
2021/12/28 17:57:53;;;;;;;35.13;19.60;;;1.50;99.90;;;;;;8383694;28;20185;-64
2021/12/28 18:01:54;;;;;;;30.63;20.60;;;1.50;99.90;;;;;;8382101;28;20189;-65
2021/12/28 18:05:55;;;;;;;37.23;20.80;;;1.50;99.90;;;;;;8383933;28;20285;-64
2021/12/28 18:09:57;;;;;;;44.90;24.60;;;1.50;99.90;;;;;;8384712;28;20204;-64
2021/12/28 18:13:58;;;;;;;32.60;19.33;;;1.50;99.90;;;;;;8377958;28;20205;-64
2021/12/28 18:17:58;;;;;;;36.27;20.33;;;1.60;99.90;;;;;;8413469;27;20199;-64
2021/12/28 18:22:00;;;;;;;30.77;18.80;;;1.60;99.90;;;;;;8376424;28;20197;-64
2021/12/28 18:26:01;;;;;;;32.73;18.03;;;1.60;99.90;;;;;;8383723;28;20213;-65
2021/12/28 18:30:03;;;;;;;33.40;18.10;;;1.60;99.90;;;;;;8411074;28;20185;-64
2021/12/28 18:34:04;;;;;;;31.27;19.10;;;1.70;99.90;;;;;;8387198;28;20254;-64
2021/12/28 18:38:09;;;;;;;35.00;22.40;;;1.70;99.90;;;;;;8376235;28;20186;-64
2021/12/28 18:42:11;;;;;;;32.67;19.07;;;1.70;99.90;;;;;;8376773;28;20189;-64
2021/12/28 18:46:14;;;;;;;29.83;17.73;;;1.70;99.90;;;;;;8376616;28;20455;-64
2021/12/28 18:50:17;;;;;;;30.47;16.20;;;1.80;99.90;;;;;;8372048;28;20185;-64
2021/12/28 18:54:18;;;;;;;35.57;20.07;;;1.80;99.90;;;;;;8375486;28;20272;-64
2021/12/28 18:58:24;;;;;;;38.60;20.43;;;1.80;99.90;;;;;;8410466;28;20212;-63
2021/12/28 19:02:27;;;;;;;32.07;19.07;;;1.90;99.90;;;;;;8381771;28;20189;-63
2021/12/28 19:06:28;;;;;;;54.40;28.43;;;1.90;99.90;;;;;;8377102;28;20209;-64
2021/12/28 19:10:29;;;;;;;32.87;19.10;;;1.90;99.90;;;;;;8378137;28;20193;-63
2021/12/28 19:14:31;;;;;;;27.97;17.10;;;1.90;99.90;;;;;;8391354;28;20187;-64
2021/12/28 19:18:35;;;;;;;30.57;19.37;;;2.00;99.90;;;;;;8382615;28;20188;-63
2021/12/28 19:22:36;;;;;;;25.70;17.87;;;2.00;99.90;;;;;;8383687;28;20198;-63
2021/12/28 19:26:37;;;;;;;38.17;22.00;;;2.00;99.90;;;;;;8388718;28;20211;-64
2021/12/28 19:30:41;;;;;;;36.13;22.27;;;2.10;99.90;;;;;;8373890;28;20181;-63
2021/12/28 19:34:42;;;;;;;30.97;17.50;;;2.10;99.90;;;;;;8379993;28;20192;-63
2021/12/28 19:38:44;;;;;;;30.77;16.70;;;2.10;99.90;;;;;;8395465;28;20193;-63
2021/12/28 19:42:45;;;;;;;32.83;18.53;;;2.20;99.90;;;;;;8393513;28;20195;-63
2021/12/28 19:46:46;;;;;;;31.53;17.23;;;2.20;99.90;;;;;;8383137;28;20292;-64
2021/12/28 19:50:47;;;;;;;28.63;17.33;;;2.20;99.90;;;;;;8385242;28;20182;-63
2021/12/28 19:54:49;;;;;;;30.20;17.00;;;2.20;99.90;;;;;;8384527;28;20191;-63
2021/12/28 19:58:51;;;;;;;29.53;17.77;;;2.20;99.90;;;;;;8388154;28;20224;-63
2021/12/28 20:02:52;;;;;;;35.40;22.13;;;2.20;99.90;;;;;;8383732;28;20212;-63
2021/12/28 20:06:53;;;;;;;45.10;26.83;;;2.20;99.90;;;;;;8381033;28;20190;-64
2021/12/28 20:10:56;;;;;;;56.70;29.27;;;2.20;99.90;;;;;;8382008;28;20208;-63
2021/12/28 20:14:57;;;;;;;36.77;20.07;;;2.20;99.90;;;;;;8382174;28;20185;-63
2021/12/28 20:18:58;;;;;;;35.50;19.13;;;2.20;99.90;;;;;;8385072;28;20181;-64
2021/12/28 20:23:00;;;;;;;28.20;17.17;;;2.20;99.90;;;;;;8386713;28;21649;-63
2021/12/28 20:27:02;;;;;;;36.07;20.13;;;2.20;99.90;;;;;;8386720;28;20289;-64
2021/12/28 20:31:04;;;;;;;38.87;20.10;;;2.20;99.90;;;;;;8398479;28;20185;-63
2021/12/28 20:35:05;;;;;;;34.67;20.70;;;2.20;99.90;;;;;;8385303;28;20197;-63